Time;durP1;ratioP1;P1;durP2;ratioP2;P2;SDS_P1;SDS_P2;PMS_P1;PMS_P2;Temp;Humidity;BMP_temperature;BMP_pressure;BME280_temperature;BME280_humidity;BME280_pressure;Samples;Min_cycle;Max_cycle;Signal;HPM_P1;HPM_P2
2022/01/13 00:00:56;;;;;;;;;;;;;;;;;;5073842;28;20007;-83
2022/01/13 00:03:23;;;;;;;;;;;;;;;;;;5073847;28;20007;-83
2022/01/13 00:05:50;;;;;;;;;;;;;;;;;;5073697;28;20027;-83
2022/01/13 00:08:17;;;;;;;;;;;;;;;;;;5073687;28;20024;-83
2022/01/13 00:10:44;;;;;;;;;;;;;;;;;;5073203;28;20469;-83
2022/01/13 00:13:20;;;;;;;;;;;;;;;;;;5073368;28;20057;-83
2022/01/13 00:15:50;;;;;;;;;;;;;;;;;;5073344;28;19925;-84
2022/01/13 00:18:19;;;;;;;;;;;;;;;;;;5073563;28;19924;-83
2022/01/13 00:21:12;;;;;;;;;;;;;;;;;;5073811;28;19931;-83
2022/01/13 00:23:44;;;;;;;;;;;;;;;;;;5072822;28;19950;-83
2022/01/13 00:26:17;;;;;;;;;;;;;;;;;;5073657;28;19957;-83
2022/01/13 00:28:46;;;;;;;;;;;;;;;;;;5073490;28;19925;-83
2022/01/13 00:31:16;;;;;;;;;;;;;;;;;;5073806;28;19949;-83
2022/01/13 00:33:45;;;;;;;;;;;;;;;;;;5073348;28;20295;-83
2022/01/13 00:36:12;;;;;;;;;;;;;;;;;;5073387;28;20394;-83
2022/01/13 00:38:39;;;;;;;;;;;;;;;;;;5073347;28;20019;-84
2022/01/13 00:41:07;;;;;;;;;;;;;;;;;;5073367;28;20029;-83
2022/01/13 00:43:37;;;;;;;;;;;;;;;;;;5073628;28;19924;-83
2022/01/13 00:46:04;;;;;;;;;;;;;;;;;;5073309;28;20031;-83
2022/01/13 00:48:31;;;;;;;;;;;;;;;;;;5073117;28;19983;-83
2022/01/13 00:50:58;;;;;;;;;;;;;;;;;;5072998;28;20015;-83
2022/01/13 00:53:25;;;;;;;;;;;;;;;;;;5073021;28;19967;-83
2022/01/13 00:55:58;;;;;;;;;;;;;;;;;;5073060;28;20011;-83
2022/01/13 00:58:25;;;;;;;;;;;;;;;;;;5073131;28;20414;-83
2022/01/13 01:00:52;;;;;;;;;;;;;;;;;;5073138;28;20011;-83
2022/01/13 01:03:20;;;;;;;;;;;;;;;;;;5073122;28;20027;-83
2022/01/13 01:05:47;;;;;;;;;;;;;;;;;;5072958;28;19949;-84
2022/01/13 01:08:14;;;;;;;;;;;;;;;;;;5072961;28;20031;-83
2022/01/13 01:10:41;;;;;;;;;;;;;;;;;;5072830;28;20362;-83
2022/01/13 01:13:12;;;;;;;;;;;;;;;;;;5072812;28;20015;-83
2022/01/13 01:15:41;;;;;;;;;;;;;;;;;;5073083;28;20098;-83
2022/01/13 01:18:19;;;;;;;;;;;;;;;;;;5072884;28;20394;-83
2022/01/13 01:20:52;;;;;;;;;;;;;;;;;;5072745;28;20280;-83
2022/01/13 01:23:24;;;;;;;;;;;;;;;;;;5073150;28;19946;-83
2022/01/13 01:26:02;;;;;;;;;;;;;;;;;;5073064;28;19993;-83
2022/01/13 01:28:39;;;;;;;;;;;;;;;;;;5073062;28;19924;-83
2022/01/13 01:31:06;;;;;;;;;;;;;;;;;;5072845;28;20406;-83
2022/01/13 01:33:34;;;;;;;;;;;;;;;;;;5072727;28;20054;-83
2022/01/13 01:36:03;;;;;;;;;;;;;;;;;;5076524;28;19975;-83
2022/01/13 01:38:30;;;;;;;;;;;;;;;;;;5076435;28;19986;-83
2022/01/13 01:40:57;;;;;;;;;;;;;;;;;;5076620;28;19946;-83
2022/01/13 01:43:24;;;;;;;;;;;;;;;;;;5076360;28;20018;-83
2022/01/13 01:45:52;;;;;;;;;;;;;;;;;;5076233;28;20416;-83
2022/01/13 01:48:20;;;;;;;;;;;;;;;;;;5076448;28;19947;-83
2022/01/13 01:50:58;;;;;;;;;;;;;;;;;;5076117;28;19924;-83
2022/01/13 01:53:25;;;;;;;;;;;;;;;;;;5076159;28;19966;-83
2022/01/13 01:55:52;;;;;;;;;;;;;;;;;;5076253;28;20352;-83
2022/01/13 01:58:19;;;;;;;;;;;;;;;;;;5075941;28;20033;-83
2022/01/13 02:00:47;;;;;;;;;;;;;;;;;;5076371;28;20008;-82
2022/01/13 02:03:14;;;;;;;;;;;;;;;;;;5076214;28;19950;-83
2022/01/13 02:05:41;;;;;;;;;;;;;;;;;;5076189;28;20035;-83
2022/01/13 02:08:09;;;;;;;;;;;;;;;;;;5075976;28;20042;-83
2022/01/13 02:10:36;;;;;;;;;;;;;;;;;;5075984;28;20033;-83
2022/01/13 02:13:06;;;;;;;;;;;;;;;;;;5075820;28;19924;-83
2022/01/13 02:15:35;;;;;;;;;;;;;;;;;;5075928;28;19959;-83
2022/01/13 02:18:02;;;;;;;;;;;;;;;;;;5075639;28;20292;-83
2022/01/13 02:20:29;;;;;;;;;;;;;;;;;;5075684;28;20003;-83
2022/01/13 02:22:56;;;;;;;;;;;;;;;;;;5075495;28;20443;-83
2022/01/13 02:25:23;;;;;;;;;;;;;;;;;;5075454;28;19982;-83
2022/01/13 02:27:50;;;;;;;;;;;;;;;;;;5075617;28;20038;-82
2022/01/13 02:30:17;;;;;;;;;;;;;;;;;;5075361;28;20470;-83
2022/01/13 02:32:44;;;;;;;;;;;;;;;;;;5075609;28;20017;-83
2022/01/13 02:35:11;;;;;;;;;;;;;;;;;;5075480;28;20024;-83
2022/01/13 02:37:38;;;;;;;;;;;;;;;;;;5075374;28;20025;-83
2022/01/13 02:40:06;;;;;;;;;;;;;;;;;;5075636;28;19999;-83
2022/01/13 02:42:33;;;;;;;;;;;;;;;;;;5075323;28;20442;-83
2022/01/13 02:45:06;;;;;;;;;;;;;;;;;;5075387;28;19930;-83
2022/01/13 02:48:00;;;;;;;;;;;;;;;;;;5074540;28;19924;-83
2022/01/13 02:50:27;;;;;;;;;;;;;;;;;;5074957;28;20069;-83
2022/01/13 02:52:54;;;;;;;;;;;;;;;;;;5075360;28;20019;-83
2022/01/13 02:55:21;;;;;;;;;;;;;;;;;;5075071;28;20056;-83
2022/01/13 02:57:48;;;;;;;;;;;;;;;;;;5074937;28;20406;-83
2022/01/13 03:00:15;;;;;;;;;;;;;;;;;;5074872;28;19943;-83
2022/01/13 03:02:45;;;;;;;;;;;;;;;;;;5075024;28;20037;-83
2022/01/13 03:05:14;;;;;;;;;;;;;;;;;;5075125;28;19949;-83
2022/01/13 03:07:41;;;;;;;;;;;;;;;;;;5074908;28;19943;-83
2022/01/13 03:10:08;;;;;;;;;;;;;;;;;;5074643;28;19975;-83
2022/01/13 03:12:38;;;;;;;;;;;;;;;;;;5074603;28;19967;-83
2022/01/13 03:15:05;;;;;;;;;;;;;;;;;;5074480;28;19955;-83
2022/01/13 03:17:32;;;;;;;;;;;;;;;;;;5074404;28;19999;-83
2022/01/13 03:19:59;;;;;;;;;;;;;;;;;;5074688;28;20033;-84
2022/01/13 03:22:26;;;;;;;;;;;;;;;;;;5074552;28;19925;-83
2022/01/13 03:24:53;;;;;;;;;;;;;;;;;;5074341;28;20434;-83
2022/01/13 03:27:23;;;;;;;;;;;;;;;;;;5074348;28;19972;-83
2022/01/13 03:29:50;;;;;;;;;;;;;;;;;;5074218;28;19924;-83
2022/01/13 03:32:17;;;;;;;;;;;;;;;;;;5074121;28;20473;-83
2022/01/13 03:34:44;;;;;;;;;;;;;;;;;;5074241;28;20057;-82
2022/01/13 03:37:11;;;;;;;;;;;;;;;;;;5074132;28;20381;-83
2022/01/13 03:39:38;;;;;;;;;;;;;;;;;;5074278;28;20011;-83
2022/01/13 03:42:05;;;;;;;;;;;;;;;;;;5074184;28;20029;-83
2022/01/13 03:44:32;;;;;;;;;;;;;;;;;;5073972;28;20030;-82
2022/01/13 03:47:02;;;;;;;;;;;;;;;;;;5074307;28;20009;-83
2022/01/13 03:49:29;;;;;;;;;;;;;;;;;;5073724;28;19924;-83
2022/01/13 03:51:58;;;;;;;;;;;;;;;;;;5074021;28;19982;-82
2022/01/13 03:54:25;;;;;;;;;;;;;;;;;;5073847;28;19961;-83
2022/01/13 03:56:52;;;;;;;;;;;;;;;;;;5073707;28;20422;-83
2022/01/13 03:59:19;;;;;;;;;;;;;;;;;;5073063;28;20031;-83
2022/01/13 04:01:46;;;;;;;;;;;;;;;;;;5073803;28;19951;-83
2022/01/13 04:04:13;;;;;;;;;;;;;;;;;;5073890;28;20019;-83
2022/01/13 04:06:40;;;;;;;;;;;;;;;;;;5073873;28;19924;-83
2022/01/13 04:09:07;;;;;;;;;;;;;;;;;;5073736;28;19968;-83
2022/01/13 04:11:34;;;;;;;;;;;;;;;;;;5073510;28;20038;-82
2022/01/13 04:14:04;;;;;;;;;;;;;;;;;;5073652;28;19987;-83
2022/01/13 04:16:31;;;;;;;;;;;;;;;;;;5073753;28;19925;-83
2022/01/13 04:19:02;;;;;;;;;;;;;;;;;;5073777;28;20016;-82
2022/01/13 04:21:29;;;;;;;;;;;;;;;;;;5073534;28;20417;-83
2022/01/13 04:23:57;;;;;;;;;;;;;;;;;;5073457;28;20033;-83
2022/01/13 04:26:28;;;;;;;;;;;;;;;;;;5073400;28;20491;-82
2022/01/13 04:29:02;;;;;;;;;;;;;;;;;;5073924;28;19924;-82
2022/01/13 04:31:29;;;;;;;;;;;;;;;;;;5073390;28;20304;-83
2022/01/13 04:33:56;;;;;;;;;;;;;;;;;;5073330;28;20030;-83
2022/01/13 04:36:23;;;;;;;;;;;;;;;;;;5073314;28;20063;-83
2022/01/13 04:38:50;;;;;;;;;;;;;;;;;;5073576;28;20007;-83
2022/01/13 04:41:27;;;;;;;;;;;;;;;;;;5073481;28;20020;-82
2022/01/13 04:43:55;;;;;;;;;;;;;;;;;;5073590;28;19931;-83
2022/01/13 04:46:22;;;;;;;;;;;;;;;;;;5073339;28;20034;-83
2022/01/13 04:48:49;;;;;;;;;;;;;;;;;;5073128;28;19943;-82
2022/01/13 04:51:16;;;;;;;;;;;;;;;;;;5073246;28;20015;-83
2022/01/13 04:53:43;;;;;;;;;;;;;;;;;;5073488;28;20336;-83
2022/01/13 04:56:13;;;;;;;;;;;;;;;;;;5073195;28;20061;-83
2022/01/13 04:58:40;;;;;;;;;;;;;;;;;;5073360;28;19928;-83
2022/01/13 05:01:07;;;;;;;;;;;;;;;;;;5073061;28;20045;-82
2022/01/13 05:03:34;;;;;;;;;;;;;;;;;;5073229;28;20037;-84
2022/01/13 05:06:01;;;;;;;;;;;;;;;;;;5073073;28;19971;-82
2022/01/13 05:08:28;;;;;;;;;;;;;;;;;;5073305;28;20037;-83
2022/01/13 05:10:55;;;;;;;;;;;;;;;;;;5076909;28;20031;-83
2022/01/13 05:13:22;;;;;;;;;;;;;;;;;;5076843;28;20324;-82
2022/01/13 05:15:50;;;;;;;;;;;;;;;;;;5078591;28;19924;-83
2022/01/13 05:18:23;;;;;;;;;;;;;;;;;;5076708;28;20279;-83
2022/01/13 05:20:58;;;;;;;;;;;;;;;;;;5076955;28;19924;-83
2022/01/13 05:23:25;;;;;;;;;;;;;;;;;;5076950;28;19925;-83
2022/01/13 05:25:52;;;;;;;;;;;;;;;;;;5076698;28;20375;-83
2022/01/13 05:28:19;;;;;;;;;;;;;;;;;;5076965;28;20011;-83
2022/01/13 05:30:46;;;;;;;;;;;;;;;;;;5076610;28;20016;-83
2022/01/13 05:33:13;;;;;;;;;;;;;;;;;;5076681;28;20447;-83
2022/01/13 05:35:40;;;;;;;;;;;;;;;;;;5076654;28;20015;-83
2022/01/13 05:38:07;;;;;;;;;;;;;;;;;;5076691;28;20096;-83
2022/01/13 05:40:34;;;;;;;;;;;;;;;;;;5076611;28;20384;-83
2022/01/13 05:43:01;;;;;;;;;;;;;;;;;;5076565;28;20045;-83
2022/01/13 05:45:30;;;;;;;;;;;;;;;;;;5076581;28;20016;-83
2022/01/13 05:47:57;;;;;;;;;;;;;;;;;;5076387;28;19924;-83
2022/01/13 05:50:24;;;;;;;;;;;;;;;;;;5076528;28;20019;-84
2022/01/13 05:52:51;;;;;;;;;;;;;;;;;;5077109;28;20050;-83
2022/01/13 05:55:18;;;;;;;;;;;;;;;;;;5076600;28;19967;-83
2022/01/13 05:57:45;;;;;;;;;;;;;;;;;;5076549;28;20439;-83
2022/01/13 06:00:12;;;;;;;;;;;;;;;;;;5076632;28;20083;-83
2022/01/13 06:02:39;;;;;;;;;;;;;;;;;;5076882;28;20019;-83
2022/01/13 06:05:06;;;;;;;;;;;;;;;;;;5076384;28;20041;-83
2022/01/13 06:07:33;;;;;;;;;;;;;;;;;;5076391;28;20031;-83
2022/01/13 06:10:00;;;;;;;;;;;;;;;;;;5076817;28;20011;-83
2022/01/13 06:12:34;;;;;;;;;;;;;;;;;;5076426;28;20358;-83
2022/01/13 06:15:01;;;;;;;;;;;;;;;;;;5076328;28;19971;-83
2022/01/13 06:17:28;;;;;;;;;;;;;;;;;;5076241;28;20363;-83
2022/01/13 06:19:55;;;;;;;;;;;;;;;;;;5076362;28;20348;-83
2022/01/13 06:22:22;;;;;;;;;;;;;;;;;;5075103;28;19943;-83
2022/01/13 06:24:49;;;;;;;;;;;;;;;;;;5075682;28;20340;-83
2022/01/13 06:27:16;;;;;;;;;;;;;;;;;;5075704;28;20046;-83
2022/01/13 06:29:44;;;;;;;;;;;;;;;;;;5075549;28;20042;-83
2022/01/13 06:32:11;;;;;;;;;;;;;;;;;;5075809;28;20015;-83
2022/01/13 06:34:38;;;;;;;;;;;;;;;;;;5075855;28;20026;-83
2022/01/13 06:37:05;;;;;;;;;;;;;;;;;;5075963;28;20368;-83
2022/01/13 06:39:32;;;;;;;;;;;;;;;;;;5075853;28;20029;-83
2022/01/13 06:41:59;;;;;;;;;;;;;;;;;;5075787;28;20034;-83
2022/01/13 06:44:26;;;;;;;;;;;;;;;;;;5075599;28;20025;-83
2022/01/13 06:46:53;;;;;;;;;;;;;;;;;;5075530;28;19968;-83
2022/01/13 06:49:20;;;;;;;;;;;;;;;;;;5075075;28;20011;-83
2022/01/13 06:51:47;;;;;;;;;;;;;;;;;;5075470;28;20023;-83
2022/01/13 06:54:14;;;;;;;;;;;;;;;;;;5075314;28;20007;-83
2022/01/13 06:56:41;;;;;;;;;;;;;;;;;;5075172;28;20273;-83
2022/01/13 06:59:11;;;;;;;;;;;;;;;;;;5075259;28;20053;-83
2022/01/13 07:01:38;;;;;;;;;;;;;;;;;;5075058;28;19932;-83
2022/01/13 07:04:05;;;;;;;;;;;;;;;;;;5075325;28;19947;-83
2022/01/13 07:06:33;;;;;;;;;;;;;;;;;;5075358;28;19970;-84
2022/01/13 07:09:00;;;;;;;;;;;;;;;;;;5075526;28;19974;-83
2022/01/13 07:11:27;;;;;;;;;;;;;;;;;;5075134;28;19940;-82
2022/01/13 07:13:54;;;;;;;;;;;;;;;;;;5075006;28;19997;-84
2022/01/13 07:16:21;;;;;;;;;;;;;;;;;;5074596;28;20392;-82
2022/01/13 07:18:48;;;;;;;;;;;;;;;;;;5075011;28;19960;-83
2022/01/13 07:21:16;;;;;;;;;;;;;;;;;;5074538;28;20035;-83
2022/01/13 07:23:44;;;;;;;;;;;;;;;;;;5074778;28;20004;-83
2022/01/13 07:26:11;;;;;;;;;;;;;;;;;;5075342;28;19960;-83
2022/01/13 07:28:38;;;;;;;;;;;;;;;;;;5074547;28;20007;-84
2022/01/13 07:31:05;;;;;;;;;;;;;;;;;;5074560;28;19946;-83
2022/01/13 07:33:32;;;;;;;;;;;;;;;;;;5074016;28;20019;-83
2022/01/13 07:35:59;;;;;;;;;;;;;;;;;;5074680;28;20049;-83
2022/01/13 07:38:26;;;;;;;;;;;;;;;;;;5074465;28;20007;-83
2022/01/13 07:40:53;;;;;;;;;;;;;;;;;;5074201;28;20044;-83
2022/01/13 07:43:24;;;;;;;;;;;;;;;;;;5074315;28;19947;-83
2022/01/13 07:45:51;;;;;;;;;;;;;;;;;;5074173;28;20022;-83
2022/01/13 07:48:18;;;;;;;;;;;;;;;;;;5073938;28;20025;-83
2022/01/13 07:50:45;;;;;;;;;;;;;;;;;;5073864;28;20489;-83
2022/01/13 07:53:12;;;;;;;;;;;;;;;;;;5074231;28;20019;-83
2022/01/13 07:55:39;;;;;;;;;;;;;;;;;;5073970;28;19967;-83
2022/01/13 07:58:06;;;;;;;;;;;;;;;;;;5073775;28;20457;-83
2022/01/13 08:00:33;;;;;;;;;;;;;;;;;;5073992;28;20041;-83
2022/01/13 08:03:00;;;;;;;;;;;;;;;;;;5073744;28;20008;-83
2022/01/13 08:05:27;;;;;;;;;;;;;;;;;;5073742;28;20464;-83
2022/01/13 08:07:54;;;;;;;;;;;;;;;;;;5073759;28;20011;-83
2022/01/13 08:10:21;;;;;;;;;;;;;;;;;;5073688;28;20011;-83
2022/01/13 08:12:48;;;;;;;;;;;;;;;;;;5073728;28;20443;-83
2022/01/13 08:15:15;;;;;;;;;;;;;;;;;;5073762;28;19928;-83
2022/01/13 08:20:27;;;;;;;;;;;;;;;;;;5073796;28;19919;-84
2022/01/13 08:22:54;;;;;;;;;;;;;;;;;;5074000;28;19982;-83
2022/01/13 08:25:21;;;;;;;;;;;;;;;;;;5073575;28;19975;-83
2022/01/13 08:27:48;;;;;;;;;;;;;;;;;;5073540;28;19924;-84
2022/01/13 08:30:15;;;;;;;;;;;;;;;;;;5072867;28;20037;-83
2022/01/13 08:32:42;;;;;;;;;;;;;;;;;;5073625;28;19925;-84
2022/01/13 08:35:09;;;;;;;;;;;;;;;;;;5073621;28;20004;-83
2022/01/13 08:37:36;;;;;;;;;;;;;;;;;;5073512;28;19947;-84
2022/01/13 08:40:03;;;;;;;;;;;;;;;;;;5073480;28;20411;-83
2022/01/13 08:42:30;;;;;;;;;;;;;;;;;;5073185;28;20023;-84
2022/01/13 08:44:57;;;;;;;;;;;;;;;;;;5078116;28;20027;-84
2022/01/13 08:47:24;;;;;;;;;;;;;;;;;;5080122;28;19975;-84
2022/01/13 08:49:51;;;;;;;;;;;;;;;;;;5080388;28;20011;-84
2022/01/13 08:52:18;;;;;;;;;;;;;;;;;;5080056;28;19924;-83
2022/01/13 08:54:46;;;;;;;;;;;;;;;;;;5079944;28;19963;-84
2022/01/13 08:57:13;;;;;;;;;;;;;;;;;;5079894;28;19959;-84
2022/01/13 08:59:40;;;;;;;;;;;;;;;;;;5080144;28;20033;-84
2022/01/13 09:02:07;;;;;;;;;;;;;;;;;;5080356;28;20328;-83
2022/01/13 09:04:34;;;;;;;;;;;;;;;;;;5080122;28;20034;-84
2022/01/13 09:07:01;;;;;;;;;;;;;;;;;;5080082;28;20008;-84
2022/01/13 09:09:28;;;;;;;;;;;;;;;;;;5079906;28;20011;-84
2022/01/13 09:11:55;;;;;;;;;;;;;;;;;;5080304;28;20011;-84
2022/01/13 09:14:26;;;;;;;;;;;;;;;;;;5080121;28;19988;-84
2022/01/13 09:16:53;;;;;;;;;;;;;;;;;;5080105;28;19960;-84
2022/01/13 09:19:20;;;;;;;;;;;;;;;;;;5079917;28;20359;-84
2022/01/13 09:21:47;;;;;;;;;;;;;;;;;;5079903;28;20007;-84
2022/01/13 09:24:14;;;;;;;;;;;;;;;;;;5080087;28;20011;-84
2022/01/13 09:26:41;;;;;;;;;;;;;;;;;;5079893;28;19975;-84
2022/01/13 09:29:08;;;;;;;;;;;;;;;;;;5079812;28;19925;-84
2022/01/13 09:31:35;;;;;;;;;;;;;;;;;;5079979;28;20007;-84
2022/01/13 09:34:02;;;;;;;;;;;;;;;;;;5079927;28;20015;-84
2022/01/13 09:36:29;;;;;;;;;;;;;;;;;;5079789;28;20375;-84
2022/01/13 09:38:56;;;;;;;;;;;;;;;;;;5079889;28;19955;-84
2022/01/13 09:41:23;;;;;;;;;;;;;;;;;;5080323;28;20021;-84
2022/01/13 09:43:51;;;;;;;;;;;;;;;;;;5080060;28;20387;-84
2022/01/13 09:46:18;;;;;;;;;;;;;;;;;;5079813;28;19985;-84
2022/01/13 09:48:46;;;;;;;;;;;;;;;;;;5080158;28;19974;-84
2022/01/13 09:51:13;;;;;;;;;;;;;;;;;;5080663;28;20387;-84
2022/01/13 09:53:40;;;;;;;;;;;;;;;;;;5080046;28;20383;-84
2022/01/13 09:56:08;;;;;;;;;;;;;;;;;;5077859;28;20342;-84
2022/01/13 09:58:35;;;;;;;;;;;;;;;;;;5076764;28;19982;-84
2022/01/13 10:01:02;;;;;;;;;;;;;;;;;;5077199;28;20046;-84
2022/01/13 10:03:29;;;;;;;;;;;;;;;;;;5076852;28;20307;-84
2022/01/13 10:05:57;;;;;;;;;;;;;;;;;;5077351;28;20050;-84
2022/01/13 10:08:24;;;;;;;;;;;;;;;;;;5077455;28;19943;-84
2022/01/13 10:10:58;;;;;;;;;;;;;;;;;;5077051;28;20387;-83
2022/01/13 10:13:40;;;;;;;;;;;;;;;;;;5076886;28;19971;-84
2022/01/13 10:16:26;;;;;;;;;;;;;;;;;;5076465;28;19924;-84
2022/01/13 10:18:53;;;;;;;;;;;;;;;;;;5076643;28;19951;-84
2022/01/13 10:21:20;;;;;;;;;;;;;;;;;;5076679;28;20000;-84
2022/01/13 10:23:47;;;;;;;;;;;;;;;;;;5076285;28;20446;-84
2022/01/13 10:26:16;;;;;;;;;;;;;;;;;;5076563;28;19988;-84
2022/01/13 10:28:43;;;;;;;;;;;;;;;;;;5075857;28;19925;-84
2022/01/13 10:31:10;;;;;;;;;;;;;;;;;;5076667;28;19967;-84
2022/01/13 10:33:38;;;;;;;;;;;;;;;;;;5075660;28;19998;-83
2022/01/13 10:36:05;;;;;;;;;;;;;;;;;;5075727;28;19986;-83
2022/01/13 10:38:32;;;;;;;;;;;;;;;;;;5076587;28;20012;-83
2022/01/13 10:40:59;;;;;;;;;;;;;;;;;;5075521;28;20003;-83
2022/01/13 10:43:26;;;;;;;;;;;;;;;;;;5076414;28;19924;-83
2022/01/13 10:45:53;;;;;;;;;;;;;;;;;;5075806;28;20029;-84
2022/01/13 10:48:22;;;;;;;;;;;;;;;;;;5075322;28;20358;-83
2022/01/13 10:50:49;;;;;;;;;;;;;;;;;;5074959;28;20007;-83
2022/01/13 10:53:16;;;;;;;;;;;;;;;;;;5075356;28;19924;-84
2022/01/13 10:55:43;;;;;;;;;;;;;;;;;;5057253;28;20307;-83
2022/01/13 10:58:10;;;;;;;;;;;;;;;;;;5075189;28;20049;-83
2022/01/13 11:00:37;;;;;;;;;;;;;;;;;;5075403;28;19995;-84
2022/01/13 11:03:04;;;;;;;;;;;;;;;;;;5074871;28;20443;-83
2022/01/13 11:05:31;;;;;;;;;;;;;;;;;;5075028;28;20003;-83
2022/01/13 11:07:58;;;;;;;;;;;;;;;;;;5075078;28;19928;-83
2022/01/13 11:10:25;;;;;;;;;;;;;;;;;;5074954;28;19924;-83
2022/01/13 11:12:57;;;;;;;;;;;;;;;;;;5075088;28;19935;-83
2022/01/13 11:15:25;;;;;;;;;;;;;;;;;;5072376;28;19935;-83
2022/01/13 11:17:52;;;;;;;;;;;;;;;;;;5074264;28;19925;-82
2022/01/13 11:20:19;;;;;;;;;;;;;;;;;;5074105;28;20020;-81
2022/01/13 11:22:46;;;;;;;;;;;;;;;;;;5074093;28;20007;-83
2022/01/13 11:25:13;;;;;;;;;;;;;;;;;;5074292;28;20469;-82
2022/01/13 11:27:40;;;;;;;;;;;;;;;;;;5074652;28;20015;-82
2022/01/13 11:30:07;;;;;;;;;;;;;;;;;;5074453;28;20042;-82
2022/01/13 11:32:34;;;;;;;;;;;;;;;;;;5074377;28;20033;-82
2022/01/13 11:35:01;;;;;;;;;;;;;;;;;;5074598;28;20007;-83
2022/01/13 11:37:28;;;;;;;;;;;;;;;;;;5074163;28;20455;-82
2022/01/13 11:39:55;;;;;;;;;;;;;;;;;;5074548;28;20011;-83
2022/01/13 11:42:22;;;;;;;;;;;;;;;;;;5074784;28;19978;-83
2022/01/13 11:44:49;;;;;;;;;;;;;;;;;;5074338;28;20012;-83
2022/01/13 11:47:16;;;;;;;;;;;;;;;;;;5074193;28;20003;-82
2022/01/13 11:49:54;;;;;;;;;;;;;;;;;;5073865;28;19970;-83
2022/01/13 11:52:31;;;;;;;;;;;;;;;;;;5074190;28;19943;-81
2022/01/13 11:54:58;;;;;;;;;;;;;;;;;;5074014;28;19995;-82
2022/01/13 11:57:25;;;;;;;;;;;;;;;;;;5073951;28;19959;-82
2022/01/13 11:59:52;;;;;;;;;;;;;;;;;;5074040;28;19994;-83
2022/01/13 12:02:19;;;;;;;;;;;;;;;;;;5073723;28;20035;-82
2022/01/13 12:04:46;;;;;;;;;;;;;;;;;;5074085;28;20035;-83
2022/01/13 12:07:13;;;;;;;;;;;;;;;;;;5073835;28;20046;-82
2022/01/13 12:09:40;;;;;;;;;;;;;;;;;;5073686;28;19995;-82
2022/01/13 12:12:09;;;;;;;;;;;;;;;;;;5073637;28;19979;-82
2022/01/13 12:14:38;;;;;;;;;;;;;;;;;;5073527;28;19951;-82
2022/01/13 12:17:07;;;;;;;;;;;;;;;;;;5073379;28;20338;-82
2022/01/13 12:19:37;;;;;;;;;;;;;;;;;;5072842;28;20402;-82
2022/01/13 12:22:08;;;;;;;;;;;;;;;;;;5073717;28;19943;-82
2022/01/13 12:24:35;;;;;;;;;;;;;;;;;;5073584;28;20420;-83
2022/01/13 12:27:02;;;;;;;;;;;;;;;;;;5073492;28;20035;-82
2022/01/13 12:29:30;;;;;;;;;;;;;;;;;;5073578;28;20042;-82
2022/01/13 12:31:57;;;;;;;;;;;;;;;;;;5073499;28;19957;-82
2022/01/13 12:34:24;;;;;;;;;;;;;;;;;;5073427;28;19952;-83
2022/01/13 12:36:51;;;;;;;;;;;;;;;;;;5073419;28;20002;-82
2022/01/13 12:39:18;;;;;;;;;;;;;;;;;;5073302;28;20401;-83
2022/01/13 12:41:45;;;;;;;;;;;;;;;;;;5073227;28;19999;-82
2022/01/13 12:45:27;;;;;;;;;;;;;;;;;;5073211;28;19998;-82
2022/01/13 12:47:00;;;;;;;;;;;;;;;;;;5073021;28;19964;-83
2022/01/13 12:49:27;;;;;;;;;;;;;;;;;;5073101;28;20058;-82
2022/01/13 12:51:54;;;;;;;;;;;;;;;;;;5073077;28;20450;-83
2022/01/13 12:54:21;;;;;;;;;;;;;;;;;;5073256;28;20051;-83
2022/01/13 12:56:48;;;;;;;;;;;;;;;;;;5073262;28;20072;-83
2022/01/13 12:59:15;;;;;;;;;;;;;;;;;;5072898;28;20041;-82
2022/01/13 13:01:42;;;;;;;;;;;;;;;;;;5073254;28;20043;-82
2022/01/13 13:04:09;;;;;;;;;;;;;;;;;;5073042;28;20400;-82
2022/01/13 13:06:36;;;;;;;;;;;;;;;;;;5073124;28;20401;-82
2022/01/13 13:09:03;;;;;;;;;;;;;;;;;;5073032;28;19975;-82
2022/01/13 13:11:30;;;;;;;;;;;;;;;;;;5072970;28;20040;-82
2022/01/13 13:13:58;;;;;;;;;;;;;;;;;;5073118;28;19989;-82
2022/01/13 13:16:25;;;;;;;;;;;;;;;;;;5072939;28;19995;-83
2022/01/13 13:18:52;;;;;;;;;;;;;;;;;;5072981;28;20060;-83
2022/01/13 13:21:19;;;;;;;;;;;;;;;;;;5072882;28;20379;-82
2022/01/13 13:23:46;;;;;;;;;;;;;;;;;;5072870;28;20056;-81
2022/01/13 13:26:14;;;;;;;;;;;;;;;;;;5073231;28;19948;-83
2022/01/13 13:28:41;;;;;;;;;;;;;;;;;;5072795;28;19984;-81
2022/01/13 13:31:08;;;;;;;;;;;;;;;;;;5075274;28;19952;-82
2022/01/13 13:33:35;;;;;;;;;;;;;;;;;;5076647;28;20372;-82
2022/01/13 13:36:02;;;;;;;;;;;;;;;;;;5076608;28;20054;-81
2022/01/13 13:38:29;;;;;;;;;;;;;;;;;;5076333;28;20061;-82
2022/01/13 13:40:56;;;;;;;;;;;;;;;;;;5076765;28;20045;-81
2022/01/13 13:43:23;;;;;;;;;;;;;;;;;;5076741;28;20034;-82
2022/01/13 13:45:50;;;;;;;;;;;;;;;;;;5075968;28;20061;-82
2022/01/13 13:48:17;;;;;;;;;;;;;;;;;;5076567;28;20055;-82
2022/01/13 13:50:44;;;;;;;;;;;;;;;;;;5076251;28;20022;-82
2022/01/13 13:53:11;;;;;;;;;;;;;;;;;;5077117;28;20382;-83
2022/01/13 13:55:38;;;;;;;;;;;;;;;;;;5076656;28;20055;-83
2022/01/13 13:58:07;;;;;;;;;;;;;;;;;;5076287;28;20061;-83
2022/01/13 14:00:34;;;;;;;;;;;;;;;;;;5076058;28;19999;-82
2022/01/13 14:03:01;;;;;;;;;;;;;;;;;;5075880;28;20047;-83
2022/01/13 14:05:28;;;;;;;;;;;;;;;;;;5076298;28;19952;-81
2022/01/13 14:07:55;;;;;;;;;;;;;;;;;;5076061;28;20436;-82
2022/01/13 14:10:22;;;;;;;;;;;;;;;;;;5076251;28;19984;-82
2022/01/13 14:12:50;;;;;;;;;;;;;;;;;;5076345;28;20044;-83
2022/01/13 14:15:17;;;;;;;;;;;;;;;;;;5075842;28;19996;-82
2022/01/13 14:17:44;;;;;;;;;;;;;;;;;;5075773;28;20484;-82
2022/01/13 14:20:11;;;;;;;;;;;;;;;;;;5075758;28;20053;-82
2022/01/13 14:22:38;;;;;;;;;;;;;;;;;;5076387;28;20046;-83
2022/01/13 14:25:05;;;;;;;;;;;;;;;;;;5075734;28;20057;-82
2022/01/13 14:27:32;;;;;;;;;;;;;;;;;;5075835;28;20039;-83
2022/01/13 14:29:59;;;;;;;;;;;;;;;;;;5075380;28;20451;-83
2022/01/13 14:32:26;;;;;;;;;;;;;;;;;;5075627;28;20047;-82
2022/01/13 14:34:53;;;;;;;;;;;;;;;;;;5075891;28;20055;-83
2022/01/13 14:37:20;;;;;;;;;;;;;;;;;;5075608;28;20044;-83
2022/01/13 14:39:47;;;;;;;;;;;;;;;;;;5075316;28;20486;-83
2022/01/13 14:42:14;;;;;;;;;;;;;;;;;;5074324;28;20353;-82
2022/01/13 14:44:41;;;;;;;;;;;;;;;;;;5075152;28;19950;-83
2022/01/13 14:47:08;;;;;;;;;;;;;;;;;;5075076;28;20058;-82
2022/01/13 14:49:35;;;;;;;;;;;;;;;;;;5075261;28;20158;-83
2022/01/13 14:52:03;;;;;;;;;;;;;;;;;;5075038;28;20148;-82
2022/01/13 14:54:30;;;;;;;;;;;;;;;;;;5075083;28;20008;-82
2022/01/13 14:56:57;;;;;;;;;;;;;;;;;;5074912;28;20061;-81
2022/01/13 14:59:24;;;;;;;;;;;;;;;;;;5074912;28;20048;-82
2022/01/13 15:01:51;;;;;;;;;;;;;;;;;;5074772;28;20384;-82
2022/01/13 15:04:18;;;;;;;;;;;;;;;;;;5075113;28;19995;-82
2022/01/13 15:06:45;;;;;;;;;;;;;;;;;;5074731;28;20017;-83
2022/01/13 15:09:12;;;;;;;;;;;;;;;;;;5074612;28;20043;-83
2022/01/13 15:11:39;;;;;;;;;;;;;;;;;;5074590;28;19956;-82
2022/01/13 15:14:06;;;;;;;;;;;;;;;;;;5074523;28;20006;-83
2022/01/13 15:16:35;;;;;;;;;;;;;;;;;;5074751;28;20034;-83
2022/01/13 15:19:07;;;;;;;;;;;;;;;;;;5074349;28;20416;-83
2022/01/13 15:21:34;;;;;;;;;;;;;;;;;;5074687;28;20035;-83
2022/01/13 15:24:01;;;;;;;;;;;;;;;;;;5074537;28;19997;-84
2022/01/13 15:26:29;;;;;;;;;;;;;;;;;;5074528;28;19951;-82
2022/01/13 15:28:56;;;;;;;;;;;;;;;;;;5074712;28;19973;-83
2022/01/13 15:31:23;;;;;;;;;;;;;;;;;;5074169;28;20041;-83
2022/01/13 15:33:50;;;;;;;;;;;;;;;;;;5074407;28;19993;-83
2022/01/13 15:36:17;;;;;;;;;;;;;;;;;;5074307;28;19948;-83
2022/01/13 15:38:44;;;;;;;;;;;;;;;;;;5074087;28;20059;-84
2022/01/13 15:41:11;;;;;;;;;;;;;;;;;;5074242;28;19959;-83
2022/01/13 15:43:38;;;;;;;;;;;;;;;;;;5074385;28;20041;-83
2022/01/13 15:46:05;;;;;;;;;;;;;;;;;;5074382;28;20313;-83
2022/01/13 15:48:32;;;;;;;;;;;;;;;;;;5074366;28;20030;-83
2022/01/13 15:50:59;;;;;;;;;;;;;;;;;;5073886;28;20055;-83
2022/01/13 15:53:26;;;;;;;;;;;;;;;;;;5073907;28;20480;-82
2022/01/13 15:55:53;;;;;;;;;;;;;;;;;;5074238;28;20068;-83
2022/01/13 15:58:21;;;;;;;;;;;;;;;;;;5073925;28;20041;-83
2022/01/13 16:00:48;;;;;;;;;;;;;;;;;;5074018;28;19996;-83
2022/01/13 16:03:15;;;;;;;;;;;;;;;;;;5073950;28;19993;-83
2022/01/13 16:05:42;;;;;;;;;;;;;;;;;;5073820;28;20376;-82
2022/01/13 16:08:09;;;;;;;;;;;;;;;;;;5073835;28;19953;-83
2022/01/13 16:10:36;;;;;;;;;;;;;;;;;;5073993;28;20054;-82
2022/01/13 16:13:03;;;;;;;;;;;;;;;;;;5073763;28;20036;-83
2022/01/13 16:15:30;;;;;;;;;;;;;;;;;;5073640;28;19958;-83
2022/01/13 16:17:57;;;;;;;;;;;;;;;;;;5073666;28;20013;-83
2022/01/13 16:20:29;;;;;;;;;;;;;;;;;;5073686;28;20056;-83
2022/01/13 16:22:56;;;;;;;;;;;;;;;;;;5074032;28;19975;-83
2022/01/13 16:25:23;;;;;;;;;;;;;;;;;;5073741;28;19951;-83
2022/01/13 16:27:53;;;;;;;;;;;;;;;;;;5073564;28;20042;-84
2022/01/13 16:30:21;;;;;;;;;;;;;;;;;;5073775;28;19958;-84
2022/01/13 16:32:48;;;;;;;;;;;;;;;;;;5073267;28;20041;-84
2022/01/13 16:35:15;;;;;;;;;;;;;;;;;;5073373;28;20046;-84
2022/01/13 16:37:43;;;;;;;;;;;;;;;;;;5073570;28;20025;-84
2022/01/13 16:40:10;;;;;;;;;;;;;;;;;;5073153;28;19955;-84
2022/01/13 16:42:40;;;;;;;;;;;;;;;;;;5073398;28;19961;-84
2022/01/13 16:45:07;;;;;;;;;;;;;;;;;;5073419;28;19950;-84
2022/01/13 16:47:34;;;;;;;;;;;;;;;;;;5073284;28;20035;-84
2022/01/13 16:50:03;;;;;;;;;;;;;;;;;;5072987;28;20077;-84
2022/01/13 16:52:31;;;;;;;;;;;;;;;;;;5073502;28;19961;-84